createdAt,value
2017-08-30T00:00:22.673Z,1008.8
2017-08-30T00:01:31.523Z,1008.79
2017-08-30T00:02:40.376Z,1008.78
2017-08-30T00:03:49.231Z,1008.8
2017-08-30T00:04:58.081Z,1008.77
2017-08-30T00:06:06.953Z,1008.81
2017-08-30T00:07:15.809Z,1008.8
2017-08-30T00:08:24.663Z,1008.81
2017-08-30T00:09:33.518Z,1008.81
2017-08-30T00:10:42.371Z,1008.78
2017-08-30T00:11:51.222Z,1008.8
2017-08-30T00:13:00.076Z,1008.77
2017-08-30T00:14:08.928Z,1008.75
2017-08-30T00:15:17.778Z,1008.74
2017-08-30T00:16:26.634Z,1008.74
2017-08-30T00:17:35.486Z,1008.74
2017-08-30T00:18:44.338Z,1008.75
2017-08-30T00:19:53.190Z,1008.74
2017-08-30T00:21:02.042Z,1008.75
2017-08-30T00:22:10.896Z,1008.71
2017-08-30T00:23:19.745Z,1008.69
2017-08-30T00:24:28.598Z,1008.72
2017-08-30T00:25:37.449Z,1008.68
2017-08-30T00:26:46.303Z,1008.7
2017-08-30T00:27:55.156Z,1008.69
2017-08-30T00:29:04.009Z,1008.72
2017-08-30T00:30:12.859Z,1008.69
2017-08-30T00:31:21.712Z,1008.69
2017-08-30T00:32:30.566Z,1008.68
2017-08-30T00:33:39.421Z,1008.71
2017-08-30T00:34:48.271Z,1008.71
2017-08-30T00:35:57.121Z,1008.7
2017-08-30T00:37:05.974Z,1008.68
2017-08-30T00:38:14.827Z,1008.71
2017-08-30T00:39:23.681Z,1008.68
2017-08-30T00:40:32.537Z,1008.68
2017-08-30T00:41:41.387Z,1008.65
2017-08-30T00:42:50.239Z,1008.65
2017-08-30T00:43:59.093Z,1008.67
2017-08-30T00:45:07.946Z,1008.65
2017-08-30T00:46:16.798Z,1008.65
2017-08-30T00:47:25.652Z,1008.64
2017-08-30T00:48:34.502Z,1008.65
2017-08-30T00:49:43.353Z,1008.67
2017-08-30T00:50:52.205Z,1008.64
2017-08-30T00:52:01.055Z,1008.66
2017-08-30T00:53:09.909Z,1008.65
2017-08-30T00:54:18.762Z,1008.62
2017-08-30T00:55:27.614Z,1008.66
2017-08-30T00:56:36.465Z,1008.62
2017-08-30T00:57:45.320Z,1008.61
2017-08-30T00:58:54.175Z,1008.62
2017-08-30T01:00:03.026Z,1008.6
2017-08-30T01:01:11.878Z,1008.61
2017-08-30T01:02:20.728Z,1008.62
2017-08-30T01:03:29.577Z,1008.6
2017-08-30T01:04:38.756Z,1008.6
2017-08-30T01:05:47.609Z,1008.57
2017-08-30T01:06:56.459Z,1008.57
2017-08-30T01:08:05.314Z,1008.54
2017-08-30T01:09:14.165Z,1008.53
2017-08-30T01:10:23.017Z,1008.51
2017-08-30T01:11:31.871Z,1008.5
2017-08-30T01:12:40.724Z,1008.49
2017-08-30T01:13:49.572Z,1008.52
2017-08-30T01:14:58.427Z,1008.45
2017-08-30T01:16:07.273Z,1008.51
2017-08-30T01:17:16.126Z,1008.5
2017-08-30T01:18:24.981Z,1008.44
2017-08-30T01:19:33.833Z,1008.47
2017-08-30T01:20:42.685Z,1008.46
2017-08-30T01:21:51.539Z,1008.46
2017-08-30T01:23:00.393Z,1008.45
2017-08-30T01:24:09.242Z,1008.45
2017-08-30T01:25:18.095Z,1008.44
2017-08-30T01:26:26.946Z,1008.48
2017-08-30T01:27:35.795Z,1008.44
2017-08-30T01:28:44.647Z,1008.42
2017-08-30T01:29:53.499Z,1008.44
2017-08-30T01:31:02.350Z,1008.45
2017-08-30T01:32:11.202Z,1008.44
2017-08-30T01:33:20.055Z,1008.45
2017-08-30T01:34:28.907Z,1008.41
2017-08-30T01:35:37.758Z,1008.43
2017-08-30T01:36:46.612Z,1008.42
2017-08-30T01:37:55.463Z,1008.44
2017-08-30T01:39:04.318Z,1008.4
2017-08-30T01:40:13.169Z,1008.4
2017-08-30T01:41:22.021Z,1008.4
2017-08-30T01:42:30.871Z,1008.38
2017-08-30T01:43:39.725Z,1008.38
2017-08-30T01:44:48.574Z,1008.35
2017-08-30T01:45:57.429Z,1008.33
2017-08-30T01:47:06.281Z,1008.34
2017-08-30T01:48:15.134Z,1008.31
2017-08-30T01:49:23.984Z,1008.29
2017-08-30T01:50:32.839Z,1008.29
2017-08-30T01:51:41.688Z,1008.27
2017-08-30T01:52:50.545Z,1008.24
2017-08-30T01:53:59.393Z,1008.27
2017-08-30T01:55:08.243Z,1008.24
2017-08-30T01:56:17.092Z,1008.26
2017-08-30T01:57:25.944Z,1008.26
2017-08-30T01:58:35.121Z,1008.24
2017-08-30T01:59:43.975Z,1008.23
2017-08-30T02:00:52.828Z,1008.24
2017-08-30T02:02:01.680Z,1008.2
2017-08-30T02:03:10.529Z,1008.21
2017-08-30T02:04:19.382Z,1008.19
2017-08-30T02:05:28.238Z,1008.2
2017-08-30T02:06:37.084Z,1008.2
2017-08-30T02:07:45.938Z,1008.19
2017-08-30T02:08:54.787Z,1008.22
2017-08-30T02:10:03.635Z,1008.21
2017-08-30T02:11:12.489Z,1008.23
2017-08-30T02:12:21.341Z,1008.22
2017-08-30T02:13:30.194Z,1008.22
2017-08-30T02:14:39.051Z,1008.17
2017-08-30T02:15:47.897Z,1008.14
2017-08-30T02:16:56.746Z,1008.14
2017-08-30T02:18:05.599Z,1008.13
2017-08-30T02:19:14.452Z,1008.14
2017-08-30T02:20:23.628Z,1008.13
2017-08-30T02:21:32.480Z,1008.14
2017-08-30T02:22:41.331Z,1008.11
2017-08-30T02:23:50.178Z,1008.12
2017-08-30T02:24:59.034Z,1008.12
2017-08-30T02:26:07.893Z,1008.1
2017-08-30T02:27:16.737Z,1008.1
2017-08-30T02:28:25.590Z,1008.07
2017-08-30T02:29:34.438Z,1008.1
2017-08-30T02:30:43.290Z,1008.05
2017-08-30T02:31:52.146Z,1008.1
2017-08-30T02:33:00.999Z,1008.07
2017-08-30T02:34:09.853Z,1008.1
2017-08-30T02:35:18.704Z,1008.11
2017-08-30T02:36:27.556Z,1008.1
2017-08-30T02:37:36.412Z,1008.07
2017-08-30T02:38:45.263Z,1008.07
2017-08-30T02:39:54.116Z,1008.02
2017-08-30T02:41:02.969Z,1008.02
2017-08-30T02:42:11.819Z,1008.02
2017-08-30T02:43:20.672Z,1008.02
2017-08-30T02:44:29.526Z,1008.07
2017-08-30T02:45:38.721Z,1008.07
2017-08-30T02:46:47.570Z,1008.06
2017-08-30T02:47:56.421Z,1008.01
2017-08-30T02:49:05.273Z,1008.01
2017-08-30T02:50:14.126Z,1007.97
2017-08-30T02:51:22.979Z,1007.98
2017-08-30T02:52:31.827Z,1007.92
2017-08-30T02:53:40.678Z,1007.91
2017-08-30T02:54:49.530Z,1007.89
2017-08-30T02:55:58.382Z,1007.92
2017-08-30T02:57:07.233Z,1007.89
2017-08-30T02:58:16.092Z,1007.86
2017-08-30T02:59:24.943Z,1007.83
2017-08-30T03:00:33.814Z,1007.84
2017-08-30T03:01:42.647Z,1007.8
2017-08-30T03:02:51.500Z,1007.8
2017-08-30T03:04:00.350Z,1007.78
2017-08-30T03:05:09.202Z,1007.81
2017-08-30T03:06:18.054Z,1007.81
2017-08-30T03:07:26.904Z,1007.84
2017-08-30T03:08:35.755Z,1007.82
2017-08-30T03:09:44.608Z,1007.84
2017-08-30T03:10:53.459Z,1007.88
2017-08-30T03:12:02.311Z,1007.89
2017-08-30T03:13:11.159Z,1007.91
2017-08-30T03:14:20.011Z,1007.92
2017-08-30T03:15:28.863Z,1007.93
2017-08-30T03:16:37.703Z,1007.94
2017-08-30T03:17:46.532Z,1007.98
2017-08-30T03:18:55.367Z,1007.95
2017-08-30T03:20:04.202Z,1007.98
2017-08-30T03:21:13.028Z,1008.01
2017-08-30T03:22:21.861Z,1008.01
2017-08-30T03:23:30.694Z,1008
2017-08-30T03:24:39.529Z,1008.02
2017-08-30T03:25:48.362Z,1008.01
2017-08-30T03:26:57.199Z,1008.03
2017-08-30T03:28:06.024Z,1008
2017-08-30T03:29:14.854Z,1008.08
2017-08-30T03:30:23.688Z,1008.06
2017-08-30T03:31:32.519Z,1008.02
2017-08-30T03:32:41.351Z,1008.03
2017-08-30T03:33:50.182Z,1008.03
2017-08-30T03:34:59.013Z,1007.99
2017-08-30T03:36:07.846Z,1008.01
2017-08-30T03:37:16.680Z,1007.99
2017-08-30T03:38:25.510Z,1007.97
2017-08-30T03:39:34.347Z,1007.96
2017-08-30T03:40:43.506Z,1008
2017-08-30T03:41:52.336Z,1008.01
2017-08-30T03:43:01.167Z,1008.01
2017-08-30T03:44:10.001Z,1008.02
2017-08-30T03:45:18.837Z,1008.03
2017-08-30T03:46:27.665Z,1008.07
2017-08-30T03:47:36.500Z,1008.08
2017-08-30T03:48:45.332Z,1008.05
2017-08-30T03:49:54.166Z,1008.02
2017-08-30T03:51:03.329Z,1008.05
2017-08-30T03:52:12.161Z,1007.98
2017-08-30T03:53:20.990Z,1008.01
2017-08-30T03:54:29.821Z,1008
2017-08-30T03:55:38.656Z,1008.04
2017-08-30T03:56:47.491Z,1008.08
2017-08-30T03:57:56.331Z,1008.06
2017-08-30T03:59:05.161Z,1008.02
2017-08-30T04:00:13.991Z,1008.01
2017-08-30T04:01:23.146Z,1008
2017-08-30T04:02:32.309Z,1008.02
2017-08-30T04:03:41.139Z,1007.97
2017-08-30T04:04:49.972Z,1007.98
2017-08-30T04:05:58.806Z,1008.01
2017-08-30T04:07:07.632Z,1008.03
2017-08-30T04:08:16.465Z,1008.06
2017-08-30T04:09:25.305Z,1008.07
2017-08-30T04:10:34.456Z,1008.11
2017-08-30T04:11:43.291Z,1008.07
2017-08-30T04:12:52.119Z,1008.09
2017-08-30T04:14:00.952Z,1008.06
2017-08-30T04:15:09.787Z,1008.03
2017-08-30T04:16:18.620Z,1008.03
2017-08-30T04:17:27.450Z,1008.02
2017-08-30T04:18:36.285Z,1008.03
2017-08-30T04:19:45.437Z,1008.03
2017-08-30T04:20:54.266Z,1008.02
2017-08-30T04:22:03.102Z,1008.09
2017-08-30T04:23:11.931Z,1008.08
2017-08-30T04:24:20.762Z,1008.04
2017-08-30T04:25:29.595Z,1008.02
2017-08-30T04:26:38.423Z,1008.02
2017-08-30T04:27:47.257Z,1008.04
2017-08-30T04:28:56.087Z,1008.05
2017-08-30T04:30:04.923Z,1008.1
2017-08-30T04:31:14.080Z,1008.07
2017-08-30T04:32:22.937Z,1008.05
2017-08-30T04:33:31.751Z,1008.09
2017-08-30T04:34:40.580Z,1008.07
2017-08-30T04:35:49.420Z,1008.1
2017-08-30T04:36:58.253Z,1008.07
2017-08-30T04:38:07.086Z,1008.09
2017-08-30T04:39:15.920Z,1008.06
2017-08-30T04:40:24.748Z,1008.07
2017-08-30T04:41:33.581Z,1008.05
2017-08-30T04:42:42.418Z,1008.04
2017-08-30T04:43:51.249Z,1008
2017-08-30T04:45:00.080Z,1008.04
2017-08-30T04:46:08.909Z,1008.05
2017-08-30T04:47:17.746Z,1008.04
2017-08-30T04:48:26.573Z,1008.06
2017-08-30T04:49:35.413Z,1008.07
2017-08-30T04:50:44.243Z,1008.08
2017-08-30T04:51:53.077Z,1008.13
2017-08-30T04:53:01.918Z,1008.09
2017-08-30T04:54:10.753Z,1008.16
2017-08-30T04:55:19.581Z,1008.09
2017-08-30T04:56:28.414Z,1008.13
2017-08-30T04:57:37.249Z,1008.07
2017-08-30T04:58:46.076Z,1008.04
2017-08-30T04:59:54.910Z,1008.07
2017-08-30T05:01:03.743Z,1008.07
2017-08-30T05:02:12.577Z,1008.07
2017-08-30T05:03:21.409Z,1008.08
2017-08-30T05:04:30.245Z,1008.04
2017-08-30T05:05:39.397Z,1008.05
2017-08-30T05:06:48.227Z,1008.04
2017-08-30T05:07:57.062Z,1008.02
2017-08-30T05:09:05.890Z,1008.02
2017-08-30T05:10:14.722Z,1007.96
2017-08-30T05:11:23.551Z,1007.94
2017-08-30T05:12:32.385Z,1007.91
2017-08-30T05:13:41.217Z,1007.91
2017-08-30T05:14:50.051Z,1007.97
2017-08-30T05:15:58.894Z,1007.98
2017-08-30T05:17:07.709Z,1008.03
2017-08-30T05:18:16.546Z,1008.05
2017-08-30T05:19:25.383Z,1008.12
2017-08-30T05:20:34.209Z,1008.1
2017-08-30T05:21:43.043Z,1008.15
2017-08-30T05:22:51.871Z,1008.16
2017-08-30T05:24:00.702Z,1008.13
2017-08-30T05:25:09.536Z,1008.14
2017-08-30T05:26:18.366Z,1008.09
2017-08-30T05:27:27.200Z,1008.07
2017-08-30T05:28:36.036Z,1008.05
2017-08-30T05:29:44.866Z,1008.02
2017-08-30T05:30:53.697Z,1007.99
2017-08-30T05:32:02.868Z,1007.99
2017-08-30T05:33:11.701Z,1008.07
2017-08-30T05:34:20.533Z,1008.04
2017-08-30T05:35:29.364Z,1008.04
2017-08-30T05:36:38.195Z,1008.08
2017-08-30T05:37:47.027Z,1008.1
2017-08-30T05:38:55.862Z,1008.05
2017-08-30T05:40:04.695Z,1008.1
2017-08-30T05:41:13.527Z,1008.08
2017-08-30T05:42:22.359Z,1008.12
2017-08-30T05:43:31.191Z,1008.07
2017-08-30T05:44:40.027Z,1008.07
2017-08-30T05:45:48.858Z,1008.03
2017-08-30T05:46:57.692Z,1008.07
2017-08-30T05:48:06.518Z,1008.05
2017-08-30T05:49:15.354Z,1008.05
2017-08-30T05:50:24.187Z,1008.07
2017-08-30T05:51:33.017Z,1008.07
2017-08-30T05:52:42.169Z,1008.04
2017-08-30T05:53:51.004Z,1008.09
2017-08-30T05:54:59.835Z,1008.06
2017-08-30T05:56:08.664Z,1008.04
2017-08-30T05:57:17.502Z,1008.05
2017-08-30T05:58:26.331Z,1008.04
2017-08-30T05:59:35.161Z,1008.08
2017-08-30T06:00:43.994Z,1008.07
2017-08-30T06:01:52.829Z,1008.06
2017-08-30T06:03:01.664Z,1008.08
2017-08-30T06:04:10.493Z,1008.09
2017-08-30T06:05:19.327Z,1008.08
2017-08-30T06:06:28.156Z,1008.03
2017-08-30T06:07:36.992Z,1008.02
2017-08-30T06:08:46.147Z,1008.03
2017-08-30T06:09:54.986Z,1008.01
2017-08-30T06:11:03.817Z,1008.01
2017-08-30T06:12:12.649Z,1008.01
2017-08-30T06:13:21.483Z,1008.01
2017-08-30T06:14:30.317Z,1007.96
2017-08-30T06:15:39.147Z,1007.98
2017-08-30T06:16:47.979Z,1007.99
2017-08-30T06:17:57.135Z,1007.97
2017-08-30T06:19:05.971Z,1007.96
2017-08-30T06:20:14.804Z,1007.95
2017-08-30T06:21:23.639Z,1007.93
2017-08-30T06:22:32.473Z,1007.94
2017-08-30T06:23:41.304Z,1007.96
2017-08-30T06:24:50.137Z,1007.92
2017-08-30T06:25:58.968Z,1007.9
2017-08-30T06:27:07.801Z,1007.94
2017-08-30T06:28:16.636Z,1007.98
2017-08-30T06:29:25.462Z,1007.95
2017-08-30T06:30:34.294Z,1007.94
2017-08-30T06:31:43.126Z,1007.96
2017-08-30T06:32:51.961Z,1007.97
2017-08-30T06:34:00.791Z,1007.93
2017-08-30T06:35:09.627Z,1007.91
2017-08-30T06:36:18.462Z,1007.9
2017-08-30T06:37:27.299Z,1007.87
2017-08-30T06:38:36.133Z,1007.85
2017-08-30T06:39:44.961Z,1007.9
2017-08-30T06:40:53.803Z,1007.88
2017-08-30T06:42:02.639Z,1007.9
2017-08-30T06:43:11.464Z,1007.89
2017-08-30T06:44:20.303Z,1007.94
2017-08-30T06:45:29.135Z,1007.94
2017-08-30T06:46:37.970Z,1007.96
2017-08-30T06:47:46.803Z,1007.94
2017-08-30T06:48:55.961Z,1007.95
2017-08-30T06:50:04.790Z,1007.89
2017-08-30T06:51:13.621Z,1007.86
2017-08-30T06:52:22.460Z,1007.86
2017-08-30T06:53:31.295Z,1007.88
2017-08-30T06:54:40.135Z,1007.89
2017-08-30T06:55:48.960Z,1007.88
2017-08-30T06:56:57.795Z,1007.85
2017-08-30T06:58:06.627Z,1007.79
2017-08-30T06:59:15.456Z,1007.85
2017-08-30T07:00:24.291Z,1007.83
2017-08-30T07:01:33.122Z,1007.88
2017-08-30T07:02:41.953Z,1007.84
2017-08-30T07:03:50.782Z,1007.81
2017-08-30T07:04:59.621Z,1007.83
2017-08-30T07:06:08.453Z,1007.85
2017-08-30T07:07:17.290Z,1007.8
2017-08-30T07:08:26.121Z,1007.82
2017-08-30T07:09:34.953Z,1007.84
2017-08-30T07:10:43.788Z,1007.83
2017-08-30T07:11:52.622Z,1007.85
2017-08-30T07:13:01.457Z,1007.8
2017-08-30T07:14:10.292Z,1007.84
2017-08-30T07:15:19.449Z,1007.87
2017-08-30T07:16:28.280Z,1007.85
2017-08-30T07:17:37.112Z,1007.86
2017-08-30T07:18:45.946Z,1007.85
2017-08-30T07:19:54.780Z,1007.85
2017-08-30T07:21:03.614Z,1007.9
2017-08-30T07:22:12.447Z,1007.85
2017-08-30T07:23:21.283Z,1007.81
2017-08-30T07:24:30.114Z,1007.81
2017-08-30T07:25:38.949Z,1007.81
2017-08-30T07:26:47.781Z,1007.8
2017-08-30T07:27:56.614Z,1007.86
2017-08-30T07:29:05.450Z,1007.85
2017-08-30T07:30:14.280Z,1007.86
2017-08-30T07:31:23.116Z,1007.81
2017-08-30T07:32:31.951Z,1007.85
2017-08-30T07:33:40.785Z,1007.83
2017-08-30T07:34:49.613Z,1007.86
2017-08-30T07:35:58.450Z,1007.81
2017-08-30T07:37:07.282Z,1007.82
2017-08-30T07:38:16.121Z,1007.83
2017-08-30T07:39:24.954Z,1007.77
2017-08-30T07:40:33.787Z,1007.77
2017-08-30T07:41:42.619Z,1007.78
2017-08-30T07:42:51.454Z,1007.74
2017-08-30T07:44:00.294Z,1007.74
2017-08-30T07:45:09.128Z,1007.75
2017-08-30T07:46:17.956Z,1007.72
2017-08-30T07:47:26.792Z,1007.73
2017-08-30T07:48:35.625Z,1007.71
2017-08-30T07:49:44.463Z,1007.76
2017-08-30T07:50:53.291Z,1007.68
2017-08-30T07:52:02.127Z,1007.7
2017-08-30T07:53:10.958Z,1007.72
2017-08-30T07:54:19.793Z,1007.72
2017-08-30T07:55:28.627Z,1007.72
2017-08-30T07:56:37.458Z,1007.74
2017-08-30T07:57:46.301Z,1007.72
2017-08-30T07:58:55.126Z,1007.67
2017-08-30T08:00:03.968Z,1007.67
2017-08-30T08:01:12.802Z,1007.67
2017-08-30T08:02:21.640Z,1007.65
2017-08-30T08:03:30.467Z,1007.63
2017-08-30T08:04:39.303Z,1007.66
2017-08-30T08:05:48.133Z,1007.64
2017-08-30T08:06:56.971Z,1007.62
2017-08-30T08:08:05.808Z,1007.6
2017-08-30T08:09:14.638Z,1007.59
2017-08-30T08:10:23.470Z,1007.62
2017-08-30T08:11:32.308Z,1007.72
2017-08-30T08:12:41.140Z,1007.63
2017-08-30T08:13:49.974Z,1007.61
2017-08-30T08:14:59.137Z,1007.67
2017-08-30T08:16:07.966Z,1007.64
2017-08-30T08:17:16.795Z,1007.61
2017-08-30T08:18:25.634Z,1007.56
2017-08-30T08:19:34.469Z,1007.57
2017-08-30T08:20:43.303Z,1007.53
2017-08-30T08:21:52.135Z,1007.56
2017-08-30T08:23:00.971Z,1007.58
2017-08-30T08:24:09.806Z,1007.55
2017-08-30T08:25:18.639Z,1007.55
2017-08-30T08:26:27.469Z,1007.55
2017-08-30T08:27:36.309Z,1007.52
2017-08-30T08:28:45.144Z,1007.55
2017-08-30T08:29:53.985Z,1007.54
2017-08-30T08:31:02.823Z,1007.48
2017-08-30T08:32:11.652Z,1007.56
2017-08-30T08:33:20.484Z,1007.54
2017-08-30T08:34:29.323Z,1007.58
2017-08-30T08:35:38.151Z,1007.6
2017-08-30T08:36:46.992Z,1007.66
2017-08-30T08:37:55.831Z,1007.67
2017-08-30T08:39:04.660Z,1007.67
2017-08-30T08:40:13.499Z,1007.68
2017-08-30T08:41:22.334Z,1007.67
2017-08-30T08:42:31.166Z,1007.67
2017-08-30T08:43:40.004Z,1007.7
2017-08-30T08:44:49.172Z,1007.72
2017-08-30T08:45:58.009Z,1007.7
2017-08-30T08:47:06.840Z,1007.68
2017-08-30T08:48:15.679Z,1007.67
2017-08-30T08:49:24.515Z,1007.7
2017-08-30T08:50:33.353Z,1007.66
2017-08-30T08:51:42.188Z,1007.67
2017-08-30T08:52:51.018Z,1007.64
2017-08-30T08:53:59.853Z,1007.65
2017-08-30T08:55:08.684Z,1007.71
2017-08-30T08:56:17.524Z,1007.67
2017-08-30T08:57:26.355Z,1007.72
2017-08-30T08:58:35.197Z,1007.65
2017-08-30T08:59:44.031Z,1007.73
2017-08-30T09:00:52.861Z,1007.72
2017-08-30T09:02:01.695Z,1007.68
2017-08-30T09:03:10.530Z,1007.71
2017-08-30T09:04:19.361Z,1007.71
2017-08-30T09:05:28.196Z,1007.66
2017-08-30T09:06:37.035Z,1007.71
2017-08-30T09:07:45.869Z,1007.64
2017-08-30T09:08:54.706Z,1007.63
2017-08-30T09:10:03.547Z,1007.63
2017-08-30T09:11:12.374Z,1007.63
2017-08-30T09:12:21.214Z,1007.61
2017-08-30T09:13:30.370Z,1007.64
2017-08-30T09:14:39.205Z,1007.62
2017-08-30T09:15:48.061Z,1007.59
2017-08-30T09:16:56.874Z,1007.6
2017-08-30T09:18:05.712Z,1007.62
2017-08-30T09:19:14.551Z,1007.59
2017-08-30T09:20:23.384Z,1007.58
2017-08-30T09:21:32.222Z,1007.55
2017-08-30T09:22:41.057Z,1007.54
2017-08-30T09:23:49.888Z,1007.49
2017-08-30T09:24:58.729Z,1007.5
2017-08-30T09:26:07.560Z,1007.5
2017-08-30T09:27:16.724Z,1007.43
2017-08-30T09:28:25.554Z,1007.48
2017-08-30T09:29:34.392Z,1007.51
2017-08-30T09:30:43.226Z,1007.45
2017-08-30T09:31:52.064Z,1007.46
2017-08-30T09:33:00.896Z,1007.4
2017-08-30T09:34:09.732Z,1007.46
2017-08-30T09:35:18.565Z,1007.47
2017-08-30T09:36:27.402Z,1007.45
2017-08-30T09:37:36.238Z,1007.47
2017-08-30T09:38:45.073Z,1007.46
2017-08-30T09:39:53.905Z,1007.46
2017-08-30T09:41:02.743Z,1007.44
2017-08-30T09:42:11.575Z,1007.47
2017-08-30T09:43:20.417Z,1007.42
2017-08-30T09:44:29.251Z,1007.43
2017-08-30T09:45:38.087Z,1007.41
2017-08-30T09:46:46.919Z,1007.44
2017-08-30T09:47:55.761Z,1007.37
2017-08-30T09:49:04.596Z,1007.37
2017-08-30T09:50:13.437Z,1007.34
2017-08-30T09:51:22.270Z,1007.35
2017-08-30T09:52:31.102Z,1007.37
2017-08-30T09:53:39.939Z,1007.33
2017-08-30T09:54:48.778Z,1007.34
2017-08-30T09:55:57.614Z,1007.34
2017-08-30T09:57:06.449Z,1007.36
2017-08-30T09:58:15.283Z,1007.3
2017-08-30T09:59:24.116Z,1007.31
2017-08-30T10:00:32.950Z,1007.26
2017-08-30T10:01:41.786Z,1007.26
2017-08-30T10:02:50.618Z,1007.26
2017-08-30T10:03:59.453Z,1007.25
2017-08-30T10:05:08.290Z,1007.24
2017-08-30T10:06:17.124Z,1007.22
2017-08-30T10:07:25.962Z,1007.19
2017-08-30T10:08:34.795Z,1007.15
2017-08-30T10:09:43.656Z,1007.17
2017-08-30T10:10:52.464Z,1007.13
2017-08-30T10:12:01.307Z,1007.13
2017-08-30T10:13:10.141Z,1007.12
2017-08-30T10:14:19.301Z,1007.11
2017-08-30T10:15:28.132Z,1007.09
2017-08-30T10:16:36.973Z,1007.07
2017-08-30T10:17:45.809Z,1007.06
2017-08-30T10:18:54.649Z,1007.09
2017-08-30T10:20:03.483Z,1007.01
2017-08-30T10:21:12.318Z,1007.03
2017-08-30T10:22:21.155Z,1007.04
2017-08-30T10:23:30.313Z,1007.03
2017-08-30T10:24:39.153Z,1007.04
2017-08-30T10:25:47.989Z,1007.04
2017-08-30T10:26:56.828Z,1007.02
2017-08-30T10:28:05.669Z,1007.07
2017-08-30T10:29:14.504Z,1007.07
2017-08-30T10:30:23.335Z,1007.05
2017-08-30T10:31:32.171Z,1007.09
2017-08-30T10:32:41.328Z,1007.04
2017-08-30T10:33:50.165Z,1007
2017-08-30T10:34:59.008Z,1007.03
2017-08-30T10:36:07.840Z,1007.01
2017-08-30T10:37:16.675Z,1006.99
2017-08-30T10:38:25.515Z,1007.04
2017-08-30T10:39:34.353Z,1007.02
2017-08-30T10:40:43.239Z,1007.02
2017-08-30T10:41:52.072Z,1006.98
2017-08-30T10:43:00.907Z,1006.98
2017-08-30T10:44:09.745Z,1006.94
2017-08-30T10:45:18.582Z,1006.97
2017-08-30T10:46:27.423Z,1006.95
2017-08-30T10:47:36.261Z,1006.99
2017-08-30T10:48:45.096Z,1007.02
2017-08-30T10:49:53.931Z,1006.97
2017-08-30T10:51:02.769Z,1006.97
2017-08-30T10:52:11.612Z,1006.96
2017-08-30T10:53:20.450Z,1006.99
2017-08-30T10:54:29.285Z,1007.01
2017-08-30T10:55:38.127Z,1006.94
2017-08-30T10:56:46.964Z,1006.94
2017-08-30T10:57:55.797Z,1006.86
2017-08-30T10:59:04.635Z,1006.9
2017-08-30T11:00:13.468Z,1006.86
2017-08-30T11:01:22.303Z,1006.83
2017-08-30T11:02:31.140Z,1006.85
2017-08-30T11:03:39.979Z,1006.81
2017-08-30T11:04:48.809Z,1006.82
2017-08-30T11:05:57.644Z,1006.79
2017-08-30T11:07:06.483Z,1006.83
2017-08-30T11:08:15.320Z,1006.86
2017-08-30T11:09:24.159Z,1006.87
2017-08-30T11:10:32.989Z,1006.87
2017-08-30T11:11:41.824Z,1006.88
2017-08-30T11:12:50.664Z,1006.88
2017-08-30T11:13:59.502Z,1006.89
2017-08-30T11:15:08.342Z,1006.95
2017-08-30T11:16:17.500Z,1006.86
2017-08-30T11:17:26.335Z,1006.85
2017-08-30T11:18:35.166Z,1006.78
2017-08-30T11:19:44.012Z,1006.83
2017-08-30T11:20:52.846Z,1006.77
2017-08-30T11:22:01.680Z,1006.82
2017-08-30T11:23:10.521Z,1006.83
2017-08-30T11:24:19.357Z,1006.79
2017-08-30T11:25:28.191Z,1006.83
2017-08-30T11:26:37.028Z,1006.72
2017-08-30T11:27:45.867Z,1006.74
2017-08-30T11:28:54.703Z,1006.68
2017-08-30T11:30:03.545Z,1006.68
2017-08-30T11:31:12.379Z,1006.67
2017-08-30T11:32:21.227Z,1006.64
2017-08-30T11:33:30.383Z,1006.67
2017-08-30T11:34:39.223Z,1006.65
2017-08-30T11:35:48.060Z,1006.72
2017-08-30T11:36:56.895Z,1006.66
2017-08-30T11:38:05.733Z,1006.66
2017-08-30T11:39:14.567Z,1006.53
2017-08-30T11:40:23.408Z,1006.48
2017-08-30T11:41:32.246Z,1006.5
2017-08-30T11:42:41.085Z,1006.55
2017-08-30T11:43:49.917Z,1006.48
2017-08-30T11:44:58.755Z,1006.52
2017-08-30T11:46:07.590Z,1006.48
2017-08-30T11:47:16.429Z,1006.51
2017-08-30T11:48:25.270Z,1006.51
2017-08-30T11:49:34.104Z,1006.54
2017-08-30T11:50:42.938Z,1006.51
2017-08-30T11:51:51.778Z,1006.48
2017-08-30T11:53:00.613Z,1006.48
2017-08-30T11:54:09.454Z,1006.47
2017-08-30T11:55:18.288Z,1006.49
2017-08-30T11:56:27.122Z,1006.47
2017-08-30T11:57:35.956Z,1006.5
2017-08-30T11:58:44.805Z,1006.51
2017-08-30T11:59:53.643Z,1006.5
2017-08-30T12:01:02.482Z,1006.57
2017-08-30T12:02:11.318Z,1006.56
2017-08-30T12:03:20.154Z,1006.56
2017-08-30T12:04:28.993Z,1006.5
2017-08-30T12:05:37.833Z,1006.57
2017-08-30T12:06:46.670Z,1006.54
2017-08-30T12:07:55.510Z,1006.48
2017-08-30T12:09:04.348Z,1006.51
2017-08-30T12:10:13.185Z,1006.54
2017-08-30T12:11:22.019Z,1006.52
2017-08-30T12:12:30.857Z,1006.5
2017-08-30T12:13:39.690Z,1006.47
2017-08-30T12:14:48.884Z,1006.4
2017-08-30T12:15:57.720Z,1006.38
2017-08-30T12:17:06.561Z,1006.42
2017-08-30T12:18:15.394Z,1006.36
2017-08-30T12:19:24.232Z,1006.3
2017-08-30T12:20:33.071Z,1006.35
2017-08-30T12:21:41.904Z,1006.29
2017-08-30T12:22:50.744Z,1006.33
2017-08-30T12:23:59.581Z,1006.37
2017-08-30T12:25:08.741Z,1006.32
2017-08-30T12:26:17.581Z,1006.25
2017-08-30T12:27:26.415Z,1006.28
2017-08-30T12:28:35.248Z,1006.31
2017-08-30T12:29:44.089Z,1006.23
2017-08-30T12:30:52.924Z,1006.2
2017-08-30T12:32:01.764Z,1006.27
2017-08-30T12:33:10.599Z,1006.22
2017-08-30T12:34:19.441Z,1006.17
2017-08-30T12:35:28.276Z,1006.2
2017-08-30T12:36:37.114Z,1006.18
2017-08-30T12:37:46.275Z,1006.13
2017-08-30T12:38:55.110Z,1006.12
2017-08-30T12:40:03.949Z,1006.11
2017-08-30T12:41:12.806Z,1006.08
2017-08-30T12:42:21.621Z,1006.06
2017-08-30T12:43:30.459Z,1006.03
2017-08-30T12:44:39.297Z,1006.05
2017-08-30T12:45:48.132Z,1005.97
2017-08-30T12:46:56.969Z,1005.97
2017-08-30T12:48:05.810Z,1005.95
2017-08-30T12:49:14.969Z,1006.01
2017-08-30T12:50:23.806Z,1005.96
2017-08-30T12:51:32.646Z,1005.93
2017-08-30T12:52:41.478Z,1005.89
2017-08-30T12:53:50.318Z,1005.87
2017-08-30T12:54:59.159Z,1005.78
2017-08-30T12:56:07.998Z,1005.73
2017-08-30T12:57:16.834Z,1005.71
2017-08-30T12:58:25.674Z,1005.62
2017-08-30T12:59:34.514Z,1005.6
2017-08-30T13:00:43.353Z,1005.57
2017-08-30T13:01:52.195Z,1005.5
2017-08-30T13:03:01.030Z,1005.45
2017-08-30T13:04:09.873Z,1005.46
2017-08-30T13:05:18.713Z,1005.47
2017-08-30T13:06:27.554Z,1005.54
2017-08-30T13:07:36.396Z,1005.48
2017-08-30T13:08:45.229Z,1005.46
2017-08-30T13:09:54.066Z,1005.42
2017-08-30T13:11:02.903Z,1005.4
2017-08-30T13:12:11.743Z,1005.4
2017-08-30T13:13:20.586Z,1005.39
2017-08-30T13:14:29.422Z,1005.44
2017-08-30T13:15:38.261Z,1005.38
2017-08-30T13:16:47.432Z,1005.43
2017-08-30T13:17:56.593Z,1005.47
2017-08-30T13:19:05.765Z,1005.49
2017-08-30T13:20:14.604Z,1005.52
2017-08-30T13:21:23.781Z,1005.6
2017-08-30T13:22:32.619Z,1005.64
2017-08-30T13:23:41.454Z,1005.61
2017-08-30T13:24:50.293Z,1005.64
2017-08-30T13:25:59.130Z,1005.61
2017-08-30T13:27:07.978Z,1005.58
2017-08-30T13:28:16.807Z,1005.58
2017-08-30T13:29:25.650Z,1005.59
2017-08-30T13:30:34.483Z,1005.56
2017-08-30T13:31:43.324Z,1005.55
2017-08-30T13:32:52.163Z,1005.61
2017-08-30T13:34:01.001Z,1005.59
2017-08-30T13:35:09.840Z,1005.52
2017-08-30T13:36:18.680Z,1005.54
2017-08-30T13:37:27.513Z,1005.52
2017-08-30T13:38:36.350Z,1005.51
2017-08-30T13:39:45.192Z,1005.5
2017-08-30T13:40:54.031Z,1005.5
2017-08-30T13:42:02.869Z,1005.48
2017-08-30T13:43:11.705Z,1005.4
2017-08-30T13:44:20.541Z,1005.42
2017-08-30T13:45:29.378Z,1005.36
2017-08-30T13:46:38.215Z,1005.35
2017-08-30T13:47:47.054Z,1005.36
2017-08-30T13:48:55.894Z,1005.33
2017-08-30T13:50:04.734Z,1005.31
2017-08-30T13:51:13.573Z,1005.35
2017-08-30T13:52:22.410Z,1005.25
2017-08-30T13:53:31.251Z,1005.27
2017-08-30T13:54:40.088Z,1005.27
2017-08-30T13:55:48.925Z,1005.26